createdAt,value
2017-03-25T08:33:50.382Z,50.10
2017-03-25T08:34:47.968Z,50.60
2017-03-25T08:35:45.499Z,50.70
2017-03-25T08:36:43.161Z,50.90
2017-03-25T08:37:41.575Z,51.40
2017-03-25T08:38:39.081Z,50.80
2017-03-25T08:39:37.470Z,50.80
2017-03-25T08:40:35.103Z,50.70
2017-03-25T08:41:32.643Z,50.70
2017-03-25T08:42:30.318Z,50.60
2017-03-25T08:43:27.853Z,50.00
2017-03-25T08:44:25.460Z,50.40
2017-03-25T08:45:23.168Z,50.40
2017-03-25T08:46:20.708Z,50.40
2017-03-25T08:47:18.273Z,50.40
2017-03-25T08:48:15.895Z,50.40
2017-03-25T08:49:14.372Z,50.60
2017-03-25T08:50:11.997Z,50.20
2017-03-25T08:51:09.721Z,50.10
2017-03-25T08:52:07.336Z,50.90
2017-03-25T08:53:04.973Z,50.30
2017-03-25T08:54:02.526Z,50.40
2017-03-25T08:55:00.080Z,50.30
2017-03-25T08:55:57.633Z,50.50
2017-03-25T08:56:55.953Z,50.40
2017-03-25T08:57:53.555Z,50.20
2017-03-25T08:58:51.069Z,50.30
2017-03-25T08:59:48.654Z,50.30
2017-03-25T09:00:46.352Z,50.40
2017-03-25T09:01:44.041Z,50.50
2017-03-25T09:02:41.613Z,50.50
2017-03-25T09:03:39.178Z,50.40
2017-03-25T09:04:36.802Z,50.60
2017-03-25T09:05:34.357Z,50.60
2017-03-25T09:06:32.048Z,50.50
2017-03-25T09:07:29.574Z,50.30
2017-03-25T09:08:27.195Z,50.30
2017-03-25T09:09:24.849Z,50.30
2017-03-25T09:10:22.519Z,50.20
2017-03-25T09:11:20.076Z,50.20
2017-03-25T09:12:17.610Z,50.20
2017-03-25T09:13:15.243Z,50.20
2017-03-25T09:14:12.810Z,50.20
2017-03-25T09:15:10.356Z,50.10
2017-03-25T09:16:07.896Z,50.10
2017-03-25T09:17:05.441Z,50.10
2017-03-25T09:18:03.034Z,49.80
2017-03-25T09:19:00.648Z,49.90
2017-03-25T09:19:58.201Z,49.70
2017-03-25T09:20:55.750Z,49.90
2017-03-25T09:21:53.397Z,49.90
2017-03-25T09:22:51.823Z,49.90
2017-03-25T09:23:49.345Z,49.90
2017-03-25T09:24:46.889Z,50.00
2017-03-25T09:25:44.478Z,50.10
2017-03-25T09:26:42.086Z,49.70
2017-03-25T09:27:39.635Z,45.80
2017-03-25T09:28:37.291Z,45.60
2017-03-25T09:29:34.924Z,46.40
2017-03-25T09:30:32.477Z,45.00
2017-03-25T09:31:31.033Z,46.30
2017-03-25T09:32:28.684Z,46.20
2017-03-25T09:33:27.008Z,45.70
2017-03-25T09:34:24.629Z,45.70
2017-03-25T09:35:22.151Z,45.80
2017-03-25T09:36:19.684Z,46.20
2017-03-25T09:37:17.261Z,46.70
2017-03-25T09:38:14.820Z,46.80
2017-03-25T09:39:12.349Z,47.00
2017-03-25T09:40:10.716Z,47.80
2017-03-25T09:41:08.265Z,47.30
2017-03-25T14:15:51.223Z,51.10
2017-03-25T14:16:48.751Z,51.60
2017-03-25T14:17:47.145Z,51.70
2017-03-25T14:18:44.811Z,51.60
2017-03-25T14:19:42.409Z,51.60
2017-03-25T14:20:39.981Z,51.40
2017-03-25T14:21:37.536Z,51.30
2017-03-25T14:22:35.053Z,50.70
2017-03-25T14:23:32.572Z,49.10
2017-03-25T14:24:30.139Z,44.80
2017-03-25T14:25:27.651Z,40.90
2017-03-25T14:26:25.983Z,42.40
2017-03-25T14:27:23.743Z,42.30
2017-03-25T14:28:21.309Z,42.00
2017-03-25T14:29:18.820Z,41.70
2017-03-25T14:30:16.381Z,42.50
2017-03-25T14:31:13.904Z,42.60
2017-03-25T14:32:11.530Z,41.70
2017-03-25T14:33:09.078Z,42.10
2017-03-25T14:34:06.690Z,41.90
2017-03-25T14:35:04.342Z,39.00
2017-03-25T14:36:02.692Z,36.90
2017-03-25T14:37:00.245Z,36.80
2017-03-25T14:37:57.909Z,39.10
2017-03-25T14:38:56.308Z,38.30
2017-03-25T14:39:53.934Z,38.30
2017-03-25T14:40:51.503Z,38.20
2017-03-25T14:41:49.182Z,39.80
2017-03-25T14:42:46.802Z,40.30
2017-03-25T14:43:44.421Z,41.00
2017-03-25T14:44:42.006Z,41.00
2017-03-25T14:45:39.553Z,41.30
2017-03-25T14:46:37.119Z,41.10
2017-03-25T14:47:35.880Z,41.00
2017-03-25T14:48:34.607Z,40.90
2017-03-25T14:49:33.004Z,39.20
2017-03-25T14:50:30.573Z,39.10
2017-03-25T14:51:28.100Z,38.00
2017-03-25T14:52:25.657Z,35.90
2017-03-25T14:53:23.189Z,35.70
2017-03-25T14:54:21.588Z,35.70
2017-03-25T14:55:19.141Z,35.60
2017-03-25T14:56:16.821Z,36.10
2017-03-25T14:57:14.377Z,37.80
2017-03-25T14:58:11.968Z,38.10
2017-03-25T14:59:09.504Z,38.70
2017-03-25T15:00:07.829Z,39.00
2017-03-25T15:01:05.428Z,39.00
2017-03-25T15:02:03.014Z,39.50
2017-03-25T15:03:00.868Z,39.90
2017-03-25T15:03:58.448Z,40.10
2017-03-25T15:04:56.009Z,40.30
2017-03-25T15:05:53.614Z,40.70
2017-03-25T15:06:51.197Z,40.80
2017-03-25T15:07:48.844Z,41.00
2017-03-25T15:08:46.397Z,41.20
2017-03-25T15:09:43.950Z,41.30
2017-03-25T15:10:41.553Z,41.60
2017-03-25T15:11:39.097Z,41.70
2017-03-25T15:12:36.665Z,41.80
2017-03-25T15:13:34.434Z,41.90
2017-03-25T15:14:32.029Z,41.90
2017-03-25T15:15:29.641Z,42.20
2017-03-25T15:16:27.258Z,42.30
2017-03-25T15:17:25.345Z,42.40
2017-03-25T15:18:23.021Z,42.50
2017-03-25T15:19:20.609Z,42.70
2017-03-25T15:20:18.211Z,42.70
2017-03-25T15:21:15.756Z,42.80
2017-03-25T15:22:13.356Z,43.00
2017-03-25T15:23:11.429Z,43.10
2017-03-25T15:24:09.182Z,43.20
2017-03-25T15:25:06.865Z,43.30
2017-03-25T15:26:04.432Z,43.30
2017-03-25T15:27:02.316Z,43.50
2017-03-25T15:27:59.863Z,43.60
2017-03-25T21:03:21.213Z,49.40
2017-03-25T21:04:18.877Z,49.40
2017-03-25T21:05:16.457Z,49.50
2017-03-25T21:06:14.113Z,49.30
2017-03-25T21:07:11.698Z,49.20
2017-03-25T21:08:09.350Z,49.30
2017-03-25T21:09:07.032Z,49.10
2017-03-25T21:10:04.582Z,48.90
2017-03-25T21:11:02.885Z,48.90
2017-03-25T21:12:03.963Z,48.90
2017-03-25T21:13:01.665Z,49.20
2017-03-25T21:13:59.302Z,48.80
2017-03-25T21:14:56.942Z,48.90
2017-03-25T21:15:54.563Z,49.30
2017-03-25T21:16:52.385Z,48.60
2017-03-25T21:17:50.788Z,47.70
2017-03-25T21:18:49.253Z,47.80
2017-03-25T21:19:48.912Z,47.40
2017-03-25T21:20:46.456Z,47.20
2017-03-25T21:21:44.081Z,46.70
2017-03-25T21:22:41.647Z,45.80
2017-03-25T21:23:39.234Z,45.90
2017-03-25T21:24:36.909Z,45.50
2017-03-25T21:25:34.514Z,45.50
2017-03-25T21:26:33.368Z,44.60
2017-03-25T21:27:31.004Z,44.60
2017-03-25T21:28:28.752Z,45.00
2017-03-25T21:29:26.289Z,45.90
2017-03-25T21:30:24.508Z,46.30
2017-03-25T21:31:22.115Z,45.70
2017-03-25T21:32:19.666Z,45.80
2017-03-25T21:33:17.970Z,45.10
2017-03-25T21:34:15.516Z,45.10
2017-03-25T21:35:13.124Z,44.80
2017-03-25T21:36:10.826Z,45.30
2017-03-25T21:37:08.363Z,44.60
2017-03-25T21:38:06.326Z,44.60
2017-03-25T21:39:04.001Z,45.00
2017-03-25T21:40:02.552Z,45.20
2017-03-25T21:41:01.023Z,45.40
2017-03-25T21:41:58.740Z,45.50
2017-03-25T21:42:57.088Z,45.90
2017-03-25T21:43:54.672Z,45.90
2017-03-25T21:44:52.193Z,46.00
2017-03-25T21:45:49.894Z,46.30
2017-03-25T21:46:47.505Z,46.30
2017-03-25T21:47:45.145Z,46.60
2017-03-25T21:48:43.548Z,47.20
2017-03-25T21:49:41.272Z,46.50
2017-03-25T21:50:39.743Z,47.20
